Time,TemperatureF,DewpointF,PressureIn,WindDirection,WindDirectionDegrees,WindSpeedMPH,WindSpeedGustMPH,Humidity,HourlyPrecipIn,Conditions,Clouds,dailyrainin,SolarRadiationWatts/m^2,SoftwareType,DateUTC
2013-08-16 00:03:00,61.0,56.0,30.49,SSE,156,3.0,8.0,85,0.00,,,0.00,0.000000,,2013-08-16 04:03:00,
2013-08-16 00:43:00,62.0,57.0,30.49,NNW,341,2.0,8.0,85,0.00,,,0.00,0.000000,,2013-08-16 04:43:00,
2013-08-16 00:54:00,62.0,57.0,30.49,NNW,341,2.0,8.0,85,0.00,,,0.00,0.000000,,2013-08-16 04:54:00,
2013-08-16 01:02:00,62.0,57.0,30.49,NNW,341,2.0,8.0,85,0.00,,,0.00,0.000000,,2013-08-16 05:02:00,
2013-08-16 03:00:00,59.0,56.0,30.48,East,97,3.0,8.0,91,0.00,,,0.00,0.000000,,2013-08-16 07:00:00,
2013-08-16 03:42:00,61.0,58.0,30.46,East,97,3.0,8.0,90,0.00,,,0.00,0.000000,,2013-08-16 07:42:00,
2013-08-16 03:52:00,61.0,58.0,30.46,East,97,3.0,8.0,90,0.00,,,0.00,0.000000,,2013-08-16 07:52:00,
2013-08-16 04:01:00,61.0,58.0,30.46,East,97,3.0,8.0,90,0.00,,,0.00,0.000000,,2013-08-16 08:01:00,
2013-08-16 04:42:00,59.0,57.0,30.45,ESE,106,1.0,6.0,94,0.00,,,0.00,0.000000,,2013-08-16 08:42:00,
2013-08-16 04:52:00,59.0,57.0,30.45,ESE,106,1.0,6.0,94,0.00,,,0.00,0.000000,,2013-08-16 08:52:00,
2013-08-16 05:01:00,59.0,57.0,30.45,ESE,106,1.0,6.0,94,0.00,,,0.00,0.000000,,2013-08-16 09:01:00,
2013-08-16 05:42:00,60.0,59.0,30.46,SSE,151,2.0,5.0,96,0.00,,,0.00,0.000000,,2013-08-16 09:42:00,
2013-08-16 05:53:00,60.0,59.0,30.46,SSE,151,2.0,5.0,96,0.00,,,0.00,0.000000,,2013-08-16 09:53:00,
2013-08-16 06:03:00,60.0,59.0,30.46,SSE,151,2.0,5.0,96,0.00,,,0.00,0.000000,,2013-08-16 10:03:00,
2013-08-16 06:42:00,58.0,56.0,30.47,SE,137,2.0,5.0,94,0.00,,,0.00,0.000000,,2013-08-16 10:42:00,
2013-08-16 06:53:00,58.0,56.0,30.47,SE,137,2.0,5.0,94,0.00,,,0.00,0.000000,,2013-08-16 10:53:00,
2013-08-16 07:02:00,58.0,56.0,30.47,SE,137,2.0,5.0,94,0.00,,,0.00,0.000000,,2013-08-16 11:02:00,
2013-08-16 07:42:00,59.0,58.0,30.48,South,172,1.0,6.0,97,0.00,,,0.00,0.000000,,2013-08-16 11:42:00,
2013-08-16 07:52:00,59.0,58.0,30.48,South,172,1.0,6.0,97,0.00,,,0.00,0.000000,,2013-08-16 11:52:00,
2013-08-16 08:02:00,59.0,58.0,30.48,South,172,1.0,6.0,97,0.00,,,0.00,0.000000,,2013-08-16 12:02:00,
2013-08-16 08:42:00,60.0,58.0,30.49,East,93,1.0,3.0,92,0.00,,,0.00,18.000000,,2013-08-16 12:42:00,
2013-08-16 08:52:00,60.0,58.0,30.49,East,93,1.0,3.0,92,0.00,,,0.00,18.000000,,2013-08-16 12:52:00,
2013-08-16 09:02:00,60.0,58.0,30.49,East,93,1.0,3.0,92,0.00,,,0.00,18.000000,,2013-08-16 13:02:00,
2013-08-16 09:42:00,62.0,58.0,30.49,SSE,155,2.0,7.0,87,0.00,,,0.00,117.000000,,2013-08-16 13:42:00,
2013-08-16 09:53:00,62.0,58.0,30.49,SSE,155,2.0,7.0,87,0.00,,,0.00,117.000000,,2013-08-16 13:53:00,
2013-08-16 10:02:00,62.0,58.0,30.49,SSE,155,2.0,7.0,87,0.00,,,0.00,117.000000,,2013-08-16 14:02:00,
2013-08-16 10:42:00,64.0,59.0,30.49,SE,143,4.0,10.0,85,0.00,,,0.00,171.000000,,2013-08-16 14:42:00,
2013-08-16 10:52:00,64.0,59.0,30.49,SE,143,4.0,10.0,85,0.00,,,0.00,171.000000,,2013-08-16 14:52:00,
2013-08-16 11:01:00,64.0,59.0,30.49,SE,143,4.0,10.0,85,0.00,,,0.00,171.000000,,2013-08-16 15:01:00,
2013-08-16 11:43:00,69.0,60.0,30.49,North,9,2.0,7.0,73,0.00,,,0.00,347.000000,,2013-08-16 15:43:00,
2013-08-16 11:56:00,69.0,60.0,30.49,North,9,2.0,7.0,73,0.00,,,0.00,347.000000,,2013-08-16 15:56:00,
2013-08-16 12:04:00,69.0,60.0,30.49,North,9,2.0,7.0,73,0.00,,,0.00,347.000000,,2013-08-16 16:04:00,
2013-08-16 12:44:00,72.0,59.0,30.49,NW,307,3.0,8.0,63,0.00,,,0.00,503.000000,,2013-08-16 16:44:00,
2013-08-16 12:57:00,72.0,59.0,30.49,NW,307,3.0,8.0,63,0.00,,,0.00,503.000000,,2013-08-16 16:57:00,
2013-08-16 13:03:00,72.0,59.0,30.49,NW,307,3.0,8.0,63,0.00,,,0.00,503.000000,,2013-08-16 17:03:00,
2013-08-16 13:47:00,74.0,58.0,30.47,ESE,110,3.0,9.0,58,0.00,,,0.00,918.000000,,2013-08-16 17:47:00,
2013-08-16 14:00:00,74.0,58.0,30.47,ESE,110,3.0,9.0,58,0.00,,,0.00,918.000000,,2013-08-16 18:00:00,
2013-08-16 14:06:00,74.0,58.0,30.47,ESE,110,3.0,9.0,58,0.00,,,0.00,918.000000,,2013-08-16 18:06:00,
2013-08-16 14:50:00,-999.0,-99.9,30.46,South,173,4.0,15.0,54,0.00,,,0.00,971.000000,,2013-08-16 18:50:00,
2013-08-16 15:03:00,75.0,57.0,30.46,South,173,4.0,15.0,54,0.00,,,0.00,971.000000,,2013-08-16 19:03:00,
2013-08-16 15:46:00,77.0,60.0,30.45,WNW,283,5.0,10.0,55,0.00,,,0.00,1047.000000,,2013-08-16 19:46:00,
2013-08-16 15:55:00,77.0,60.0,30.45,WNW,283,5.0,10.0,55,0.00,,,0.00,1047.000000,,2013-08-16 19:55:00,
2013-08-16 16:02:00,77.0,60.0,30.45,WNW,283,5.0,10.0,55,0.00,,,0.00,1047.000000,,2013-08-16 20:02:00,
2013-08-16 16:44:00,77.0,59.0,30.43,SSE,156,4.0,11.0,54,0.00,,,0.00,863.000000,,2013-08-16 20:44:00,
2013-08-16 16:52:00,77.0,59.0,30.43,SSE,156,4.0,11.0,54,0.00,,,0.00,863.000000,,2013-08-16 20:52:00,
2013-08-16 17:01:00,77.0,59.0,30.43,SSE,156,4.0,11.0,54,0.00,,,0.00,863.000000,,2013-08-16 21:01:00,
2013-08-16 17:40:00,-999.0,-99.9,30.42,SSE,166,4.0,11.0,-999,0.00,,,0.00,742.000000,,2013-08-16 21:40:00,
2013-08-16 17:54:00,78.0,60.0,30.42,SSE,166,4.0,11.0,54,0.00,,,0.00,742.000000,,2013-08-16 21:54:00,
2013-08-16 18:07:00,78.0,60.0,30.42,SSE,166,4.0,11.0,54,0.00,,,0.00,742.000000,,2013-08-16 22:07:00,
2013-08-16 18:08:00,74.0,58.0,30.43,South,181,4.0,12.0,57,0.00,,,0.00,453.000000,,2013-08-16 22:08:00,
2013-08-16 18:43:00,74.0,58.0,30.43,South,181,4.0,12.0,57,0.00,,,0.00,453.000000,,2013-08-16 22:43:00,
2013-08-16 18:52:00,74.0,58.0,30.43,South,181,4.0,12.0,57,0.00,,,0.00,453.000000,,2013-08-16 22:52:00,
2013-08-16 19:42:00,73.0,59.0,30.43,South,179,3.0,12.0,62,0.00,,,0.00,350.000000,,2013-08-16 23:42:00,
2013-08-16 19:52:00,73.0,59.0,30.43,South,179,3.0,12.0,62,0.00,,,0.00,350.000000,,2013-08-16 23:52:00,
2013-08-16 20:02:00,73.0,59.0,30.43,South,179,3.0,12.0,62,0.00,,,0.00,350.000000,,2013-08-17 00:02:00,
2013-08-16 20:42:00,68.0,58.0,30.45,SSE,149,4.0,9.0,70,0.00,,,0.00,83.000000,,2013-08-17 00:42:00,
2013-08-16 20:52:00,68.0,58.0,30.45,SSE,149,4.0,9.0,70,0.00,,,0.00,83.000000,,2013-08-17 00:52:00,
2013-08-16 21:01:00,68.0,58.0,30.45,SSE,149,4.0,9.0,70,0.00,,,0.00,83.000000,,2013-08-17 01:01:00,
2013-08-16 21:42:00,65.0,57.0,30.47,SSE,165,3.0,7.0,76,0.00,,,0.00,1.000000,,2013-08-17 01:42:00,
2013-08-16 21:52:00,65.0,57.0,30.47,SSE,165,3.0,7.0,76,0.00,,,0.00,1.000000,,2013-08-17 01:52:00,
2013-08-16 22:01:00,65.0,57.0,30.47,SSE,165,3.0,7.0,76,0.00,,,0.00,1.000000,,2013-08-17 02:01:00,
2013-08-16 22:42:00,64.0,57.0,30.50,SSE,159,4.0,10.0,79,0.00,,,0.00,0.000000,,2013-08-17 02:42:00,
2013-08-16 22:52:00,64.0,57.0,30.50,SSE,159,4.0,10.0,79,0.00,,,0.00,0.000000,,2013-08-17 02:52:00,
2013-08-16 23:02:00,64.0,57.0,30.50,SSE,159,4.0,10.0,79,0.00,,,0.00,0.000000,,2013-08-17 03:02:00,
2013-08-16 23:43:00,64.0,59.0,30.50,SSE,153,4.0,10.0,83,0.00,,,0.00,0.000000,,2013-08-17 03:43:00,
2013-08-16 23:53:00,64.0,59.0,30.50,SSE,153,4.0,10.0,83,0.00,,,0.00,0.000000,,2013-08-17 03:53:00,